Flight Track Log - Related Links

Times and Time Zones

All times are in EDT time to prevent confusion due to time zone crossing. See the UAL3773 flight status page for this flight to view local times or setup timezone preferences in your user account.

Time Position Orientation Groundspeed Altitude Reporting Facility
EDT Latitude Longitude Course Direction KTS MPH feet Rate Location/Type
Wed 03:47:20 PM 38.9500 -77.5500 287° West 204 235 2,100  Level Potomac TRACON
Wed 03:48:21 PM 38.9333 -77.6333 256° West 251 289 4,100 2,084 Climbing Potomac TRACON
Wed 03:48:55 PM 38.9056 -77.6831 234° Southwest 251 289 5,400 2,426 Climbing Washington Center
Wed 03:49:55 PM 38.8667 -77.7644 238° Southwest 264 304 7,900 2,750 Climbing Washington Center
Wed 03:50:55 PM 38.8319 -77.8356 238° Southwest 265 305 10,900 2,500 Climbing Washington Center
Wed 03:51:55 PM 38.8367 -77.9236 274° West 276 318 12,900 1,800 Climbing Washington Center
Wed 03:52:00 PM 38.8181 -78.0673 287° West  Level FlightAware Approximate
Wed 03:52:55 PM 38.8431 -78.0250 275° West 276 318 14,500  Level Washington Center
Wed 03:53:54 PM 38.8489 -78.1344 274° West 295 339 15,900 1,500 Climbing Washington Center
Wed 03:54:55 PM 38.8528 -78.2519 272° West 326 375 17,500 1,500 Climbing Washington Center
Wed 03:55:54 PM 38.8519 -78.3744 270° West 345 397 18,900 1,500 Climbing Washington Center
Wed 03:56:55 PM 38.8511 -78.5053 270° West 353 406 20,500 1,388 Climbing Washington Center
Wed 03:57:55 PM 38.8519 -78.6411 270° West 379 436 21,700 1,150 Climbing Washington Center
Wed 03:58:55 PM 38.8525 -78.7797 270° West 384 442 22,800 1,160 Climbing Washington Center
Wed 03:59:54 PM 38.8444 -78.9153 266° West 384 442 24,000 1,150 Climbing Washington Center
Wed 04:00:55 PM 38.8431 -79.0406 269° West 384 442 25,100 1,140 Climbing Washington Center
Wed 04:01:55 PM 38.8428 -79.1900 270° West 398 458 26,300 1,150 Climbing Washington Center
Wed 04:02:55 PM 38.8406 -79.3336 269° West 406 467 27,400 1,000 Climbing Washington Center
Wed 04:03:55 PM 38.8381 -79.4775 269° West 406 467 28,300 1,059 Climbing Washington Center
Wed 04:04:54 PM 38.8350 -79.6372 269° West 406 467 29,500 1,059 Climbing Washington Center
Wed 04:05:54 PM 38.8319 -79.7836 269° West 406 467 30,400 750 Climbing Washington Center
Wed 04:06:54 PM 38.8247 -79.9272 266° West 406 467 31,000 595 Climbing Washington Center
Wed 04:07:55 PM 38.8219 -80.0656 269° West 411 473 31,600 660 Climbing Washington Center
Wed 04:08:34 PM 38.8169 -80.1706 267° West 426 490 32,100 832 Climbing Indianapolis Center
Wed 04:09:36 PM 38.8144 -80.3233 269° West 428 493 33,000 919 Climbing Indianapolis Center
Wed 04:10:38 PM 38.8111 -80.4722 268° West 420 483 34,000 484 Climbing Indianapolis Center
Wed 04:11:40 PM 38.8056 -80.6239 267° West 423 487 34,000  Level Indianapolis Center
Wed 04:12:42 PM 38.7997 -80.7814 267° West 441 507 34,000  Level Indianapolis Center
Wed 04:13:44 PM 38.7958 -80.9417 268° West 449 517 34,000  Level Indianapolis Center
Wed 04:14:45 PM 38.7889 -81.1361 267° West 454 522 34,000  Level Indianapolis Center
Wed 04:15:47 PM 38.7833 -81.2989 268° West 458 527 34,000  Level Indianapolis Center
Wed 04:16:49 PM 38.7764 -81.4719 267° West 458 527 34,000  Level Indianapolis Center
Wed 04:17:51 PM 38.7708 -81.6375 268° West 465 535 34,000  Level Indianapolis Center
Wed 04:18:53 PM 38.7636 -81.8117 267° West 461 531 34,000  Level Indianapolis Center
Wed 04:19:55 PM 38.7567 -81.9750 267° West 461 531 34,000  Level Indianapolis Center
Wed 04:20:57 PM 38.7506 -82.1389 267° West 462 532 34,000  Level Indianapolis Center
Wed 04:21:59 PM 38.7450 -82.3025 268° West 462 532 34,000  Level Indianapolis Center
Wed 04:23:01 PM 38.7381 -82.4664 267° West 462 532 34,000  Level Indianapolis Center
Wed 04:24:03 PM 38.7306 -82.6311 267° West 464 534 34,000  Level Indianapolis Center
Wed 04:25:05 PM 38.7228 -82.8303 267° West 466 536 34,000  Level Indianapolis Center
Wed 04:26:07 PM 38.7156 -82.9944 267° West 464 534 34,000  Level Indianapolis Center
Wed 04:27:09 PM 38.7078 -83.1539 266° West 466 536 34,000  Level Indianapolis Center
Wed 04:28:11 PM 38.7003 -83.3197 267° West 462 532 34,000  Level Indianapolis Center
Wed 04:29:13 PM 38.6917 -83.4883 266° West 468 539 34,000  Level Indianapolis Center
Wed 04:30:15 PM 38.6839 -83.6550 267° West 465 535 34,000  Level Indianapolis Center
Wed 04:31:17 PM 38.6736 -83.8492 266° West 464 534 34,000  Level Indianapolis Center
Wed 04:32:19 PM 38.6650 -84.0183 266° West 469 540 34,000  Level Indianapolis Center
Wed 04:33:21 PM 38.6564 -84.1839 266° West 464 534 34,000  Level Indianapolis Center
Wed 04:34:23 PM 38.6511 -84.3503 268° West 465 535 34,000  Level Indianapolis Center
Wed 04:35:25 PM 38.6617 -84.5186 275° West 469 540 34,000  Level Indianapolis Center
Wed 04:36:27 PM 38.6708 -84.6844 274° West 462 532 34,000  Level Indianapolis Center
Wed 04:37:29 PM 38.6811 -84.8486 275° West 463 533 34,000  Level Indianapolis Center
Wed 04:38:31 PM 38.6889 -85.0078 274° West 463 533 34,000  Level Indianapolis Center
Wed 04:39:33 PM 38.6992 -85.2025 274° West 457 526 34,000  Level Indianapolis Center
Wed 04:40:35 PM 38.7083 -85.3664 274° West 460 529 34,000  Level Indianapolis Center
Wed 04:41:37 PM 38.7167 -85.5286 274° West 458 527 34,000  Level Indianapolis Center
Wed 04:42:39 PM 38.7236 -85.6922 273° West 460 529 34,000  Level Indianapolis Center
Wed 04:43:41 PM 38.7328 -85.8553 274° West 459 528 34,000  Level Indianapolis Center
Wed 04:44:43 PM 38.7408 -86.0208 274° West 466 536 34,000  Level Indianapolis Center
Wed 04:45:45 PM 38.7494 -86.2175 273° West 462 532 34,000  Level Indianapolis Center
Wed 04:46:47 PM 38.7572 -86.3836 273° West 465 535 34,000  Level Indianapolis Center
Wed 04:47:49 PM 38.7633 -86.5486 273° West 464 534 34,000  Level Indianapolis Center
Wed 04:48:51 PM 38.7717 -86.7144 274° West 468 539 34,000  Level Indianapolis Center
Wed 04:49:53 PM 38.7775 -86.8814 273° West 470 541 34,000  Level Indianapolis Center
Wed 04:50:55 PM 38.7842 -87.0475 273° West 470 541 34,000  Level Indianapolis Center
Wed 04:51:57 PM 38.7917 -87.2478 273° West 471 542 34,000  Level Indianapolis Center
Wed 04:52:59 PM 38.7969 -87.4136 272° West 470 541 34,000  Level Indianapolis Center
Wed 04:54:01 PM 38.8025 -87.5792 273° West 467 537 34,000  Level Indianapolis Center
Wed 04:55:03 PM 38.8081 -87.7447 273° West 467 537 34,000  Level Indianapolis Center
Wed 04:56:05 PM 38.8125 -87.9100 272° West 465 535 34,000  Level Indianapolis Center
Wed 04:56:29 PM 38.8136 -87.9761 271° West 462 532 34,000  Level Kansas City Center
Wed 04:57:30 PM 38.8186 -88.1400 272° West 461 531 34,000  Level Kansas City Center
Wed 04:58:34 PM 38.8222 -88.3064 272° West 464 534 34,000  Level Kansas City Center
Wed 04:59:35 PM 38.8267 -88.4714 272° West 463 533 34,000  Level Kansas City Center
Wed 05:00:36 PM 38.8297 -88.6522 271° West 461 531 34,000  Level Kansas City Center
Wed 05:01:37 PM 38.8353 -88.8153 273° West 460 529 34,000  Level Kansas City Center
Wed 05:02:42 PM 38.8386 -89.0008 271° West 454 522 34,000  Level Kansas City Center
Wed 05:03:43 PM 38.8428 -89.1744 272° West 452 520 34,000  Level Kansas City Center
Wed 05:04:43 PM 38.8467 -89.3353 272° West 452 520 34,000  Level Kansas City Center
Wed 05:05:48 PM 38.8486 -89.4956 271° West 451 519 34,000  Level Kansas City Center
Wed 05:06:49 PM 38.8375 -89.6572 265° West 448 516 34,000  Level Kansas City Center
Wed 05:07:49 PM 38.8181 -89.8056 260° West 449 517 34,000  Level Kansas City Center
Wed 05:08:53 PM 38.7972 -89.9622 260° West 448 516 34,000  Level Kansas City Center
Wed 05:09:54 PM 38.7708 -90.1247 258° West 446 513 34,000  Level Kansas City Center
Wed 05:10:58 PM 38.7228 -90.3072 251° West 449 517 34,000 49 Level Kansas City Center
Wed 05:11:57 PM 38.6833 -90.4592 252° West 450 518 34,100  Climbing Kansas City Center
Wed 05:13:01 PM 38.7097 -90.6297 281° West 481 554 34,000 -48 Descending Kansas City Center
Wed 05:14:02 PM 38.7678 -90.7867 295° West 469 540 34,000  Level Kansas City Center
Wed 05:15:06 PM 38.8436 -90.9283 305° West 479 551 34,000  Level Kansas City Center
Wed 05:16:07 PM 38.9194 -91.0686 305° West 479 551 34,000  Level Kansas City Center
Wed 05:17:08 PM 38.9944 -91.2100 304° West 480 552 34,000  Level Kansas City Center
Wed 05:18:12 PM 39.0689 -91.3514 304° West 479 551 34,000  Level Kansas City Center
Wed 05:19:13 PM 39.1431 -91.4931 304° West 477 549 34,000  Level Kansas City Center
Wed 05:20:14 PM 39.2325 -91.6633 304° West 479 551 34,000  Level Kansas City Center
Wed 05:21:18 PM 39.3056 -91.8053 304° West 479 551 34,000  Level Kansas City Center
Wed 05:22:18 PM 39.3803 -91.9472 304° West 479 551 34,000  Level Kansas City Center
Wed 05:23:22 PM 39.4531 -92.0894 304° West 478 550 34,000 -65 Level Kansas City Center
Wed 05:25:24 PM 39.6122 -92.4003 304° West 472 543 33,800 -324 Descending Kansas City Center
Wed 05:26:27 PM 39.6508 -92.5572 288° West 461 531 33,000 -952 Descending Kansas City Center
Wed 05:27:30 PM 39.6511 -92.7122 270° West 438 504 31,800 -1,548 Descending Kansas City Center
Wed 05:28:31 PM 39.6489 -92.8700 269° West 435 501 29,800 -1,967 Descending Kansas City Center
Wed 05:29:32 PM 39.6464 -93.0292 269° West 440 506 27,800 -1,920 Descending Kansas City Center
Wed 05:30:36 PM 39.6436 -93.1797 269° West 428 493 25,800 -1,824 Descending Kansas City Center
Wed 05:31:37 PM 39.6411 -93.3592 269° West 418 481 24,000 -864 Descending Kansas City Center
Wed 05:32:41 PM 39.6381 -93.5067 269° West 414 476 24,000  Level Kansas City Center
Wed 05:33:42 PM 39.6347 -93.6586 268° West 419 482 24,000 -780 Level Kansas City Center
Wed 05:34:44 PM 39.6333 -93.8122 269° West 421 484 22,400 -2,439 Descending Kansas City Center
Wed 05:35:45 PM 39.5931 -93.9564 250° West 379 436 19,000 -3,000 Descending Kansas City Center
Wed 05:36:48 PM 39.5389 -94.0583 235° Southwest 360 414 16,200 -2,592 Descending Kansas City Center
Wed 05:37:50 PM 39.4814 -94.1697 236° Southwest 334 384 13,600 -2,195 Descending Kansas City Center
Wed 05:38:51 PM 39.4311 -94.2675 236° Southwest 340 391 11,700 -1,742 Descending Kansas City Center
Wed 05:39:54 PM 39.3719 -94.3844 237° Southwest 347 399 10,000 -823 Descending Kansas City Center
Wed 05:40:55 PM 39.3225 -94.4806 236° Southwest 335 386 10,000 -339 Level Kansas City Center
Wed 05:41:58 PM 39.2833 -94.5586 237° Southwest 270 311 9,300 -1,122 Descending Kansas City Center
Wed 05:42:58 PM 39.2281 -94.6100 216° Southwest 229 264 7,700 -1,742 Descending Kansas City Center
Wed 05:44:02 PM 39.1686 -94.6317 196° South 231 266 5,700 -1,296 Descending Kansas City Center
Wed 05:45:03 PM 39.1011 -94.6578 197° South 227 261 5,000 -639 Descending Kansas City Center
Wed 05:46:04 PM 39.1053 -94.7331 274° West 223 257 4,400 -667 Descending Kansas City Center
Wed 05:47:09 PM 39.1664 -94.7442 352° North 219 252 3,600 -864 Descending Kansas City Center
Wed 05:48:09 PM 39.2117 -94.7292 14° North 180 207 2,600 -871 Descending Kansas City Center
Wed 05:49:13 PM 39.2494 -94.7181 13° North 126 145 1,800 -720 Descending Kansas City Center
Wed 05:50:14 PM 39.2828 -94.7083 13° North 128 147 1,100 -689 Descending Kansas City Center

Login

Don't have an account? Register now (free) for customized features, flight alerts, and more!